Aérodrome :







RETROUVEZ-NOUS SUR...

 
LOGIN :

S'inscrire | Disclaimer

   EN    FR    IT 

 









Légende :    VFR   VFR Marginal   IFR   IFR Intensif   IFR Très Intensif
Visi : 
Plafond : 
>= 8 km
>= 3000ft
5 à 8 km
1000 à 3000 ft
1500m à 5 km
500 à 1000 ft
800 à 1500m
200 à 500 ft
< 800m
< 200 ft
Symboles :   Orages  Brouillard  Fortes neiges  Fortes précipitations  Vent > 20 kt






- Altitude de l'aérodrome : 59 ft
- Code IATA : PBM


SMJP - J.A. Pengel Int.

DERNIER METAR :
  • 070800Z 21002KT 0900 FG SCT002 24/24 Q1014 NOSIG

METARs EXPIRÉS :
  • 070700Z 00000KT 2000 BR SCT003 24/24 Q1014 NOSIG

TAF TAF SMJP
Valide du 07 à 06h jusqu'au 08 à 06h UTC


070400Z 0706/0806 00000KT CAVOK TX31/0718Z TN24/0709Z
PROB30
TEMPO 0709/0710 3000 BR SCT002
BECMG 0711/0713 08008KT SCT020
BECMG 0718/0722 VRB12G22KT 3000 TSRA FEW015CB BKN018
FM072200 05005KT CAVOK
FIR SMPM / Amérique du Sud



MET'MAP, la Météo Aéronautique d'un coup d'oeil ! - Copyright ORBIFLY Décembre 2007 - Disclaimer

ORBIFLY MET'MAP TEAM :

Programmation & Développement : Alexandra Zaïnal
Sur une idée originale de : Baudouin d'Aumeries
Assistance à la programmation : Marc-Olivier Méhu
Soutien technique & logistique : Manuel Goepfert

Contact : metmap@orbifly.com




SOURCES & CREDITS :

   NOAA